TimeEST,TemperatureF,Dew PointF,Humidity,Sea Level PressureIn,VisibilityMPH,Wind Direction,Wind SpeedMPH,Gust SpeedMPH,PrecipitationIn,Events,Conditions,WindDirDegrees,DateUTC
12:52 AM,27.0,21.0,78,30.40,10.0,East,5.8,-,N/A,,Clear,100,2013-11-20 05:52:00
1:52 AM,27.0,21.0,78,30.40,10.0,ESE,4.6,-,N/A,,Clear,110,2013-11-20 06:52:00
2:52 AM,26.1,21.0,81,30.41,10.0,East,5.8,-,N/A,,Clear,100,2013-11-20 07:52:00
3:52 AM,27.0,21.9,81,30.40,10.0,East,8.1,-,N/A,,Clear,100,2013-11-20 08:52:00
4:52 AM,26.1,21.9,84,30.41,10.0,ESE,6.9,-,N/A,,Clear,110,2013-11-20 09:52:00
5:52 AM,27.0,21.9,81,30.42,10.0,East,8.1,-,N/A,,Clear,100,2013-11-20 10:52:00
6:52 AM,27.0,21.9,81,30.42,10.0,East,9.2,-,N/A,,Clear,100,2013-11-20 11:52:00
7:52 AM,28.0,21.9,78,30.42,10.0,East,11.5,-,N/A,,Clear,100,2013-11-20 12:52:00
8:52 AM,30.9,24.1,76,30.42,10.0,ESE,15.0,-,N/A,,Clear,110,2013-11-20 13:52:00
9:52 AM,34.0,23.0,64,30.41,10.0,ESE,12.7,-,N/A,,Clear,110,2013-11-20 14:52:00
10:52 AM,37.9,23.0,55,30.40,10.0,SE,13.8,-,N/A,,Clear,130,2013-11-20 15:52:00
11:52 AM,39.9,24.1,53,30.38,10.0,ESE,11.5,-,N/A,,Clear,120,2013-11-20 16:52:00
12:52 PM,42.1,25.0,51,30.35,10.0,ESE,12.7,-,N/A,,Clear,110,2013-11-20 17:52:00
1:52 PM,44.1,26.1,49,30.33,10.0,East,12.7,-,N/A,,Clear,100,2013-11-20 18:52:00
2:52 PM,44.1,25.0,47,30.31,10.0,ESE,15.0,-,N/A,,Clear,120,2013-11-20 19:52:00
3:52 PM,45.0,25.0,46,30.30,10.0,SE,13.8,-,N/A,,Clear,130,2013-11-20 20:52:00
4:52 PM,39.9,24.1,53,30.31,10.0,ESE,11.5,-,N/A,,Clear,120,2013-11-20 21:52:00
5:52 PM,36.0,24.1,62,30.32,10.0,ESE,5.8,-,N/A,,Clear,120,2013-11-20 22:52:00
6:52 PM,36.0,23.0,59,30.33,10.0,SE,5.8,-,N/A,,Clear,140,2013-11-20 23:52:00
7:52 PM,36.0,21.9,57,30.32,10.0,SE,6.9,-,N/A,,Clear,140,2013-11-21 00:52:00
8:52 PM,36.0,21.9,57,30.31,10.0,SE,6.9,-,N/A,,Clear,140,2013-11-21 01:52:00
9:52 PM,36.0,21.0,55,30.31,10.0,SSE,8.1,-,N/A,,Clear,150,2013-11-21 02:52:00
10:52 PM,37.9,21.0,51,30.30,10.0,SSE,8.1,-,N/A,,Clear,150,2013-11-21 03:52:00
11:52 PM,37.9,19.9,48,30.31,10.0,SSE,6.9,-,N/A,,Clear,150,2013-11-21 04:52:00